Arkport, New York
Current Conditions -  °F | °C
As of 2:54 PM on Thursday 18 Dec 2014 (Local Time) from KDSV Reporting Station
Overcast Overcast  
Wind Chill: 26°   Ceiling: 2100
Heat Index: 33°   Visibility: 9mi
Dew Point: 27°   Wind: 8mph
Humidity: 78%   Direction: 300°WNW
Pressure: 30.04"   Gusts: NA
Location:  42.39°N, 77.7°W
Report Text: KDSV 181954Z AUTO 30007KT 9SM OVC021 01/M03 A3004 RMK AO2 SLP189 T00061028
Loading
Personal Weather Stations






























Interactive Weather Map New forecast layout! Learn more

10-Day Weather Forecast

Advertisements
Track Severe Weather on mobile